createdAt,value
2019-01-05T00:00:03.314Z,99989.24
2019-01-05T00:03:12.151Z,99986.60
2019-01-05T00:06:01.382Z,99971.52
2019-01-05T00:08:35.116Z,99982.31
2019-01-05T00:12:09.186Z,99996.46
2019-01-05T00:14:47.734Z,99983.45
2019-01-05T00:17:22.849Z,99983.85
2019-01-05T00:20:33.304Z,99984.03
2019-01-05T00:23:39.724Z,99943.02
2019-01-05T00:26:13.193Z,99955.42
2019-01-05T00:29:47.552Z,99974.91
2019-01-05T00:32:56.403Z,99970.36
2019-01-05T00:37:38.980Z,99966.43
2019-01-05T00:42:15.386Z,99904.98
2019-01-05T00:46:57.000Z,99964.02
2019-01-05T00:49:30.695Z,99952.02
2019-01-05T00:52:05.622Z,99951.23
2019-01-05T00:54:55.051Z,99936.26
2019-01-05T00:57:40.652Z,99919.19
2019-01-05T01:00:14.293Z,99919.33
2019-01-05T01:04:50.945Z,99922.21
2019-01-05T01:07:28.141Z,99865.48
2019-01-05T01:10:03.516Z,99872.41
2019-01-05T01:12:39.909Z,99901.70
2019-01-05T01:15:15.511Z,99894.42
2019-01-05T01:19:52.623Z,99881.20
2019-01-05T01:22:26.514Z,99898.89
2019-01-05T01:25:09.940Z,99886.64
2019-01-05T01:27:46.613Z,99884.67
2019-01-05T01:30:20.019Z,99887.15
2019-01-05T01:32:53.991Z,99888.53
2019-01-05T01:37:33.328Z,99892.83
2019-01-05T01:40:11.364Z,99885.30
2019-01-05T01:43:47.938Z,99885.86
2019-01-05T01:46:24.012Z,99873.21
2019-01-05T01:49:03.554Z,99841.31
2019-01-05T01:53:45.171Z,99854.23
2019-01-05T01:56:18.575Z,99851.86
2019-01-05T01:58:53.269Z,99841.63
2019-01-05T02:01:30.684Z,99841.80
2019-01-05T02:04:04.284Z,99840.78
2019-01-05T02:06:41.761Z,99829.56
2019-01-05T02:09:29.712Z,99830.94
2019-01-05T02:12:07.606Z,99822.81
2019-01-05T02:16:47.976Z,99812.97
2019-01-05T02:19:32.707Z,99807.78
2019-01-05T02:24:23.717Z,99805.81
2019-01-05T02:27:11.769Z,99784.55
2019-01-05T02:31:04.077Z,99787.70
2019-01-05T02:33:52.040Z,99779.77
2019-01-05T02:38:57.523Z,99775.83
2019-01-05T02:44:06.223Z,99768.12
2019-01-05T02:46:58.178Z,99750.06
2019-01-05T02:49:53.163Z,99761.06
2019-01-05T02:53:13.639Z,99748.30
2019-01-05T02:55:58.094Z,99748.36
2019-01-05T02:58:46.519Z,99718.09
2019-01-05T03:01:41.545Z,99731.91
2019-01-05T03:06:29.584Z,99732.44
2019-01-05T03:09:17.648Z,99724.53
2019-01-05T03:12:11.466Z,99730.05
2019-01-05T03:15:04.980Z,99723.41
2019-01-05T03:20:02.708Z,99726.50
2019-01-05T03:22:58.370Z,99720.43
2019-01-05T03:28:06.840Z,99713.97
2019-01-05T03:30:54.531Z,99716.13
2019-01-05T03:35:44.505Z,99707.86
2019-01-05T03:39:49.468Z,99683.75
2019-01-05T03:44:35.006Z,99706.91
2019-01-05T03:48:33.785Z,99630.45
2019-01-05T03:54:28.682Z,99684.59
2019-01-05T03:58:17.388Z,99671.05
2019-01-05T04:05:14.819Z,99675.02
2019-01-05T04:09:06.096Z,99542.94
2019-01-05T04:11:55.614Z,99656.52
2019-01-05T04:15:17.772Z,99653.86
2019-01-05T04:18:13.102Z,99654.97
2019-01-05T04:21:17.124Z,99655.92
2019-01-05T04:25:35.164Z,99645.49
2019-01-05T04:28:38.533Z,99645.66
2019-01-05T04:31:46.744Z,99492.80
2019-01-05T04:36:32.609Z,99485.66
2019-01-05T04:40:17.459Z,99613.95
2019-01-05T04:43:00.722Z,99609.07
2019-01-05T04:46:06.871Z,99364.09
2019-01-05T04:48:58.925Z,99604.15
2019-01-05T04:52:01.043Z,99597.02
2019-01-05T04:56:50.475Z,99591.52
2019-01-05T05:00:24.328Z,99586.16
2019-01-05T05:04:19.770Z,99582.23
2019-01-05T05:09:15.979Z,99575.38
2019-01-05T05:13:03.331Z,99571.90
2019-01-05T05:17:56.228Z,99577.61
2019-01-05T05:20:42.395Z,99587.19
2019-01-05T05:25:44.518Z,99586.00
2019-01-05T05:29:03.290Z,99570.64
2019-01-05T05:32:11.065Z,99558.64
2019-01-05T05:35:25.266Z,99552.70
2019-01-05T05:40:16.670Z,99554.30
2019-01-05T05:44:03.884Z,99535.05
2019-01-05T05:47:19.104Z,99557.34
2019-01-05T05:52:42.784Z,99543.72
2019-01-05T05:56:32.834Z,99529.98
2019-01-05T06:01:24.166Z,99535.19
2019-01-05T06:04:51.707Z,99531.84
2019-01-05T06:08:09.221Z,99529.16
2019-01-05T06:15:08.786Z,99532.64
2019-01-05T06:17:55.964Z,99501.91
2019-01-05T06:20:48.764Z,99513.53
2019-01-05T06:24:38.595Z,99514.31
2019-01-05T06:27:33.752Z,99521.29
2019-01-05T06:30:49.522Z,99507.22
2019-01-05T06:37:33.388Z,99510.48
2019-01-05T06:43:29.972Z,99516.16
2019-01-05T06:48:26.869Z,99462.05
2019-01-05T06:51:15.503Z,99527.70
2019-01-05T07:00:18.776Z,99537.12
2019-01-05T07:03:29.390Z,99517.81
2019-01-05T07:09:26.641Z,99539.05
2019-01-05T07:13:11.484Z,99538.77
2019-01-05T07:16:08.877Z,99550.35
2019-01-05T07:19:52.757Z,99468.23
2019-01-05T07:23:11.861Z,99559.88
2019-01-05T07:25:57.313Z,99548.81
2019-01-05T07:30:44.799Z,99543.45
2019-01-05T07:35:42.573Z,99554.59
2019-01-05T07:38:30.962Z,99537.68
2019-01-05T07:41:26.866Z,99526.22
2019-01-05T07:46:57.244Z,99560.95
2019-01-05T07:49:45.030Z,99562.25
2019-01-05T07:53:35.632Z,99565.52
2019-01-05T07:58:40.460Z,99559.53
2019-01-05T08:02:44.004Z,99556.41
2019-01-05T08:07:53.891Z,99562.08
2019-01-05T08:10:49.543Z,99558.02
2019-01-05T08:14:14.154Z,99577.88
2019-01-05T08:17:09.203Z,99574.58
2019-01-05T08:22:04.617Z,99586.92
2019-01-05T08:25:02.505Z,99590.84
2019-01-05T08:28:26.901Z,99593.42
2019-01-05T08:33:23.198Z,99580.44
2019-01-05T08:36:06.744Z,99593.38
2019-01-05T08:40:56.176Z,99576.98
2019-01-05T08:43:45.459Z,99592.19
2019-01-05T08:46:30.342Z,99593.02
2019-01-05T08:49:54.495Z,99590.57
2019-01-05T08:56:51.112Z,99596.78
2019-01-05T08:59:56.604Z,99578.67
2019-01-05T09:02:41.151Z,99604.45
2019-01-05T09:09:31.705Z,99602.07
2019-01-05T09:12:21.025Z,99585.16
2019-01-05T09:18:12.177Z,99590.23
2019-01-05T09:21:01.713Z,99587.81
2019-01-05T09:24:22.370Z,99591.42
2019-01-05T09:27:54.996Z,99575.42
2019-01-05T09:30:40.228Z,99576.41
2019-01-05T09:35:38.435Z,99598.78
2019-01-05T09:38:36.020Z,99606.98
2019-01-05T09:41:22.541Z,99602.13
2019-01-05T09:46:10.882Z,99567.97
2019-01-05T09:48:57.553Z,99600.75
2019-01-05T09:52:06.147Z,99579.72
2019-01-05T09:55:04.803Z,99602.68
2019-01-05T10:00:09.305Z,99561.84
2019-01-05T10:03:04.148Z,99603.75
2019-01-05T10:06:14.496Z,99603.20
2019-01-05T10:09:11.416Z,99599.45
2019-01-05T10:11:55.178Z,99597.90
2019-01-05T10:16:52.068Z,99608.73
2019-01-05T10:21:14.519Z,99597.11
2019-01-05T10:26:15.932Z,99526.98
2019-01-05T10:29:02.076Z,99566.67
2019-01-05T10:36:02.020Z,99590.30
2019-01-05T10:40:59.248Z,99519.14
2019-01-05T10:44:18.685Z,99594.33
2019-01-05T10:51:12.452Z,99584.25
2019-01-05T10:54:03.672Z,99595.60
2019-01-05T10:58:57.912Z,99593.77
2019-01-05T11:01:44.177Z,99495.73
2019-01-05T11:04:43.239Z,99578.71
2019-01-05T11:12:35.932Z,99576.81
2019-01-05T11:17:41.908Z,99581.05
2019-01-05T11:20:29.178Z,99581.75
2019-01-05T11:25:22.284Z,99577.03
2019-01-05T11:28:07.145Z,99582.36
2019-01-05T11:31:30.535Z,99551.79
2019-01-05T11:36:20.244Z,99579.11
2019-01-05T11:39:38.932Z,99581.77
2019-01-05T11:47:27.414Z,99590.92
2019-01-05T11:50:11.687Z,99599.45
2019-01-05T11:52:57.847Z,99607.03
2019-01-05T11:56:16.243Z,99608.42
2019-01-05T11:59:12.362Z,99609.86
2019-01-05T12:02:21.318Z,99572.81
2019-01-05T12:05:09.619Z,99602.28
2019-01-05T12:07:58.756Z,99611.38
2019-01-05T12:11:09.578Z,99617.73
2019-01-05T12:15:22.407Z,99618.52
2019-01-05T12:19:18.088Z,99613.63
2019-01-05T12:24:12.220Z,99553.38
2019-01-05T12:27:30.032Z,99609.86
2019-01-05T12:32:18.412Z,99528.77
2019-01-05T12:35:38.980Z,99557.11
2019-01-05T12:40:00.856Z,99581.48
2019-01-05T12:43:43.544Z,99578.81
2019-01-05T12:48:30.804Z,99575.55
2019-01-05T12:54:03.427Z,99574.86
2019-01-05T13:00:08.783Z,99577.42
2019-01-05T13:07:01.402Z,99564.05
2019-01-05T13:09:50.323Z,99564.31
2019-01-05T13:14:44.145Z,99586.36
2019-01-05T13:18:02.807Z,99590.19
2019-01-05T13:20:52.353Z,99582.54
2019-01-05T13:23:43.543Z,99581.55
2019-01-05T13:28:37.907Z,99584.50
2019-01-05T13:31:53.981Z,99593.55
2019-01-05T13:34:42.560Z,99536.02
2019-01-05T13:37:38.207Z,99610.05
2019-01-05T13:42:28.946Z,99618.91
2019-01-05T13:47:25.060Z,99627.91
2019-01-05T13:50:25.442Z,99623.52
2019-01-05T13:53:10.994Z,99622.07
2019-01-05T13:56:06.766Z,99642.53
2019-01-05T13:58:51.999Z,99643.43
2019-01-05T14:01:25.791Z,99646.53
2019-01-05T14:04:01.992Z,99646.08
2019-01-05T14:06:35.656Z,99648.64
2019-01-05T14:09:16.695Z,99652.56
2019-01-05T14:11:54.347Z,99657.95
2019-01-05T14:16:34.034Z,99660.67
2019-01-05T14:19:07.448Z,99661.33
2019-01-05T14:21:41.082Z,99666.66
2019-01-05T14:24:14.928Z,99665.61
2019-01-05T14:26:57.262Z,99674.68
2019-01-05T14:29:32.856Z,99679.41
2019-01-05T14:34:12.520Z,99679.02
2019-01-05T14:36:50.708Z,99685.08
2019-01-05T14:39:24.167Z,99684.14
2019-01-05T14:42:05.384Z,99688.38
2019-01-05T14:44:41.461Z,99691.61
2019-01-05T14:49:18.538Z,99687.45
2019-01-05T14:51:51.855Z,99697.75
2019-01-05T14:54:26.154Z,99679.15
2019-01-05T14:57:03.359Z,99702.57
2019-01-05T14:59:37.254Z,99706.97
2019-01-05T15:02:10.645Z,99710.64
2019-01-05T15:06:51.117Z,99706.59
2019-01-05T15:10:26.526Z,99694.91
2019-01-05T15:13:31.912Z,99730.03
2019-01-05T15:16:05.772Z,99720.02
2019-01-05T15:18:39.396Z,99718.24
2019-01-05T15:23:14.736Z,99719.33
2019-01-05T15:25:49.266Z,99717.61
2019-01-05T15:28:23.483Z,99724.93
2019-01-05T15:31:30.489Z,99734.87
2019-01-05T15:36:08.548Z,99732.80
2019-01-05T15:38:41.943Z,99733.69
2019-01-05T15:41:46.231Z,99771.40
2019-01-05T15:44:19.840Z,99734.59
2019-01-05T15:46:53.874Z,99699.14
2019-01-05T15:49:29.913Z,99737.20
2019-01-05T15:52:14.745Z,99743.34
2019-01-05T15:56:52.299Z,99739.64
2019-01-05T15:59:44.736Z,99745.62
2019-01-05T16:02:19.258Z,99757.93
2019-01-05T16:05:11.222Z,99751.67
2019-01-05T16:07:45.071Z,99766.91
2019-01-05T16:10:20.107Z,99759.98
2019-01-05T16:13:27.362Z,99765.52
2019-01-05T16:16:00.193Z,99768.06
2019-01-05T16:19:35.540Z,99565.36
2019-01-05T16:22:09.381Z,99766.13
2019-01-05T16:24:44.620Z,99765.52
2019-01-05T16:27:49.703Z,99764.74
2019-01-05T16:30:36.160Z,99772.72
2019-01-05T16:33:09.556Z,99759.09
2019-01-05T16:35:46.089Z,99758.08
2019-01-05T16:38:24.910Z,99757.14
2019-01-05T16:41:02.071Z,99755.59
2019-01-05T16:43:35.286Z,99759.96
2019-01-05T16:46:08.958Z,99756.59
2019-01-05T16:50:44.459Z,99692.45
2019-01-05T16:53:18.182Z,99763.08
2019-01-05T16:55:51.358Z,99761.90
2019-01-05T16:58:25.509Z,99762.73
2019-01-05T17:02:59.864Z,99768.57
2019-01-05T17:05:34.001Z,99749.70
2019-01-05T17:10:09.367Z,99767.00
2019-01-05T17:12:50.462Z,99771.31
2019-01-05T17:15:24.712Z,99767.55
2019-01-05T17:18:05.831Z,99763.84
2019-01-05T17:20:41.016Z,99772.98
2019-01-05T17:23:20.688Z,99771.42
2019-01-05T17:25:59.769Z,99818.05
2019-01-05T17:28:33.627Z,99778.29
2019-01-05T17:31:06.581Z,99781.69
2019-01-05T17:33:40.305Z,99770.42
2019-01-05T17:36:32.266Z,99777.64
2019-01-05T17:39:39.289Z,99779.83
2019-01-05T17:44:16.550Z,99780.66
2019-01-05T17:46:52.079Z,99748.73
2019-01-05T17:51:29.830Z,99781.45
2019-01-05T17:54:03.389Z,99783.53
2019-01-05T17:56:46.626Z,99798.17
2019-01-05T18:01:26.362Z,99791.24
2019-01-05T18:06:03.135Z,99791.30
2019-01-05T18:08:36.808Z,99790.84
2019-01-05T18:11:11.208Z,99759.73
2019-01-05T18:13:45.663Z,99791.29
2019-01-05T18:16:19.088Z,99790.34
2019-01-05T18:18:52.744Z,99794.05
2019-01-05T18:21:26.865Z,99792.88
2019-01-05T18:24:01.102Z,99800.98
2019-01-05T18:28:38.947Z,99798.27
2019-01-05T18:31:27.281Z,99804.79
2019-01-05T18:34:04.196Z,99801.63
2019-01-05T18:36:37.920Z,99796.48
2019-01-05T18:41:16.381Z,99798.42
2019-01-05T18:45:56.994Z,99800.04
2019-01-05T18:48:32.302Z,99797.47
2019-01-05T18:53:11.640Z,99716.19
2019-01-05T18:56:03.054Z,99802.62
2019-01-05T19:00:43.902Z,99804.00
2019-01-05T19:03:22.236Z,99773.53
2019-01-05T19:06:09.918Z,99796.14
2019-01-05T19:08:43.297Z,99783.03
2019-01-05T19:11:20.661Z,99800.97
2019-01-05T19:15:56.078Z,99783.66
2019-01-05T19:20:37.082Z,99795.98
2019-01-05T19:25:11.445Z,99805.93
2019-01-05T19:27:44.625Z,99797.63
2019-01-05T19:30:18.390Z,99803.00
2019-01-05T19:32:51.432Z,99807.75
2019-01-05T19:35:25.053Z,99807.98
2019-01-05T19:38:02.496Z,99819.66
2019-01-05T19:41:39.026Z,99813.97
2019-01-05T19:45:17.235Z,99821.88
2019-01-05T19:49:52.619Z,99821.97
2019-01-05T19:52:25.925Z,99829.23
2019-01-05T19:55:08.591Z,99831.82
2019-01-05T19:57:48.984Z,99826.52
2019-01-05T20:00:26.494Z,99830.28
2019-01-05T20:03:06.789Z,99825.73
2019-01-05T20:06:47.306Z,99837.20
2019-01-05T20:11:26.316Z,99828.99
2019-01-05T20:14:01.411Z,99829.10
2019-01-05T20:16:35.918Z,99773.77
2019-01-05T20:19:09.728Z,99836.41
2019-01-05T20:21:43.189Z,99837.41
2019-01-05T20:24:19.152Z,99832.70
2019-01-05T20:26:55.119Z,99836.26
2019-01-05T20:31:33.334Z,99816.77
2019-01-05T20:34:13.269Z,99837.64
2019-01-05T20:36:51.475Z,99862.00
2019-01-05T20:39:30.580Z,99821.77
2019-01-05T20:42:04.497Z,99843.82
2019-01-05T20:44:40.131Z,99845.20
2019-01-05T20:47:16.000Z,99845.05
2019-01-05T20:49:48.397Z,99849.01
2019-01-05T20:54:26.254Z,99846.63
2019-01-05T20:57:05.400Z,99852.61
2019-01-05T20:59:38.890Z,99854.00
2019-01-05T21:02:12.408Z,99849.06
2019-01-05T21:04:45.891Z,99855.98
2019-01-05T21:07:19.745Z,99853.21
2019-01-05T21:09:58.954Z,99854.98
2019-01-05T21:13:35.333Z,99855.38
2019-01-05T21:18:12.140Z,99852.06
2019-01-05T21:20:48.459Z,99847.56
2019-01-05T21:23:22.086Z,99855.08
2019-01-05T21:28:00.526Z,99858.19
2019-01-05T21:30:40.237Z,99860.61
2019-01-05T21:35:15.482Z,99859.62
2019-01-05T21:38:49.713Z,99850.80
2019-01-05T21:41:37.180Z,99864.72
2019-01-05T21:44:13.142Z,99848.86
2019-01-05T21:46:46.459Z,99875.47
2019-01-05T21:51:24.158Z,99870.30
2019-01-05T21:55:00.385Z,99866.73
2019-01-05T21:57:35.298Z,99867.53
2019-01-05T22:00:15.704Z,99895.64
2019-01-05T22:03:22.353Z,99869.41
2019-01-05T22:05:54.701Z,99875.77
2019-01-05T22:08:31.610Z,99875.22
2019-01-05T22:11:23.253Z,99875.22
2019-01-05T22:13:58.984Z,99873.09
2019-01-05T22:16:32.471Z,99875.86
2019-01-05T22:19:08.103Z,99882.38
2019-01-05T22:21:55.488Z,99890.13
2019-01-05T22:24:29.095Z,99882.42
2019-01-05T22:27:08.782Z,99876.53
2019-01-05T22:29:53.925Z,99883.45
2019-01-05T22:34:29.690Z,99882.27
2019-01-05T22:37:11.808Z,99839.27
2019-01-05T22:39:48.200Z,99891.41
2019-01-05T22:43:27.638Z,99891.61
2019-01-05T22:45:58.676Z,99877.92
2019-01-05T22:48:32.014Z,99896.19
2019-01-05T22:51:10.791Z,99897.97
2019-01-05T22:53:44.228Z,99899.20
2019-01-05T22:58:23.593Z,99901.61
2019-01-05T23:03:01.361Z,99904.23
2019-01-05T23:06:42.866Z,99908.22
2019-01-05T23:09:49.727Z,99908.66
2019-01-05T23:12:25.300Z,99874.05
2019-01-05T23:15:03.612Z,99904.34
2019-01-05T23:17:43.111Z,99904.55
2019-01-05T23:20:16.543Z,99904.95
2019-01-05T23:22:50.386Z,99916.84
2019-01-05T23:27:25.408Z,99916.05
2019-01-05T23:31:01.890Z,99926.96
2019-01-05T23:33:35.212Z,99908.00
2019-01-05T23:36:08.576Z,99876.78
2019-01-05T23:38:49.778Z,99902.11
2019-01-05T23:41:31.295Z,99900.45
2019-01-05T23:44:09.291Z,99904.91
2019-01-05T23:46:42.751Z,99902.52
2019-01-05T23:49:29.964Z,99902.91
2019-01-05T23:52:03.146Z,99911.78
2019-01-05T23:54:37.985Z,99906.85
2019-01-05T23:57:11.402Z,99869.47
2019-01-05T23:59:47.903Z,99902.86
